<?xml version="1.0" encoding="UTF-8" standalone="no" ?>
<gpx xmlns="http://www.topografix.com/GPX/1/1" xmlns:xsi="http://www.w3.org/2001/XMLSchema-instance" xsi:schemaLocation="http://www.topografix.com/GPX/1/1 http://www.topografix.com/GPX/1/1/gpx.xsd" version="1.1" creator="VisuGPX - https://www.visugpx.com">
  <metadata>
    <name>plage de la courbe</name>
    <desc><![CDATA[Les Mathes les Ronces]]></desc>
  </metadata>
  <wpt lat="45.71034" lon="-1.18812">
    <ele>9.4</ele>
  </wpt>
  <wpt lat="45.71613" lon="-1.15977">
    <ele>4</ele>
  </wpt>
  <wpt lat="45.71298" lon="-1.18815">
    <ele>9.5</ele>
  </wpt>
  <wpt lat="45.71036" lon="-1.19096">
    <ele>12.2</ele>
  </wpt>
  <wpt lat="45.70927" lon="-1.1919">
    <ele>6.9</ele>
  </wpt>
  <wpt lat="45.7108" lon="-1.19127">
    <ele>11.7</ele>
  </wpt>
  <wpt lat="45.711" lon="-1.19033">
    <ele>10.6</ele>
  </wpt>
  <wpt lat="45.70993" lon="-1.18877">
    <ele>11.5</ele>
  </wpt>
  <wpt lat="45.71121" lon="-1.19002">
    <ele>6.4</ele>
  </wpt>
  <wpt lat="45.71012" lon="-1.19127">
    <ele>8.9</ele>
  </wpt>
  <wpt lat="45.71012" lon="-1.18815">
    <ele>11.7</ele>
  </wpt>
  <wpt lat="45.71102" lon="-1.19096">
    <ele>12</ele>
  </wpt>
  <wpt lat="45.71211" lon="-1.19096">
    <ele>9.9</ele>
  </wpt>
  <wpt lat="45.70906" lon="-1.19252">
    <ele>6</ele>
  </wpt>
  <trk>
    <name><![CDATA[plage de la courbe_1]]></name>
    <desc><![CDATA[Les Mathes les Ronces]]></desc>
    <extensions>
      <line xmlns="http://www.topografix.com/GPX/gpx_style/0/2">
        <color>0000FF</color>
        <width>4</width>
      </line>
    </extensions>
    <trkseg>
      <trkpt lat="45.74752" lon="-1.24028">
        <ele>15.3</ele>
        <time>2021-09-26T12:50:26.000Z</time>
      </trkpt>
      <trkpt lat="45.74751" lon="-1.24001">
        <ele>21.5</ele>
        <time>2021-09-26T12:50:09.000Z</time>
      </trkpt>
      <trkpt lat="45.74747" lon="-1.23987">
        <ele>21.7</ele>
        <time>2021-09-26T12:50:01.000Z</time>
      </trkpt>
      <trkpt lat="45.74748" lon="-1.23974">
        <ele>17.7</ele>
        <time>2021-09-26T12:49:54.000Z</time>
      </trkpt>
      <trkpt lat="45.74741" lon="-1.23962">
        <ele>14.8</ele>
        <time>2021-09-26T12:49:51.000Z</time>
      </trkpt>
      <trkpt lat="45.74737" lon="-1.23944">
        <ele>13.1</ele>
        <time>2021-09-26T12:49:48.000Z</time>
      </trkpt>
      <trkpt lat="45.74738" lon="-1.23929">
        <ele>12.1</ele>
        <time>2021-09-26T12:49:45.000Z</time>
      </trkpt>
      <trkpt lat="45.74737" lon="-1.23913">
        <ele>12.6</ele>
        <time>2021-09-26T12:49:40.000Z</time>
      </trkpt>
      <trkpt lat="45.74736" lon="-1.23899">
        <ele>12.9</ele>
        <time>2021-09-26T12:49:34.000Z</time>
      </trkpt>
      <trkpt lat="45.74735" lon="-1.23886">
        <ele>13.3</ele>
        <time>2021-09-26T12:49:28.000Z</time>
      </trkpt>
      <trkpt lat="45.74736" lon="-1.23872">
        <ele>13.4</ele>
        <time>2021-09-26T12:49:22.000Z</time>
      </trkpt>
      <trkpt lat="45.74737" lon="-1.23859">
        <ele>13.6</ele>
        <time>2021-09-26T12:49:16.000Z</time>
      </trkpt>
      <trkpt lat="45.74737" lon="-1.23845">
        <ele>13.2</ele>
        <time>2021-09-26T12:49:10.000Z</time>
      </trkpt>
      <trkpt lat="45.74736" lon="-1.2383">
        <ele>13.5</ele>
        <time>2021-09-26T12:49:04.000Z</time>
      </trkpt>
      <trkpt lat="45.74738" lon="-1.23816">
        <ele>13.9</ele>
        <time>2021-09-26T12:48:58.000Z</time>
      </trkpt>
      <trkpt lat="45.74737" lon="-1.23801">
        <ele>14.8</ele>
        <time>2021-09-26T12:48:51.000Z</time>
      </trkpt>
      <trkpt lat="45.74736" lon="-1.23788">
        <ele>15.2</ele>
        <time>2021-09-26T12:48:46.000Z</time>
      </trkpt>
      <trkpt lat="45.74733" lon="-1.23774">
        <ele>15.5</ele>
        <time>2021-09-26T12:48:39.000Z</time>
      </trkpt>
      <trkpt lat="45.74731" lon="-1.2376">
        <ele>16.8</ele>
        <time>2021-09-26T12:48:31.000Z</time>
      </trkpt>
      <trkpt lat="45.74732" lon="-1.23746">
        <ele>17.2</ele>
        <time>2021-09-26T12:48:25.000Z</time>
      </trkpt>
      <trkpt lat="45.74732" lon="-1.23733">
        <ele>16.3</ele>
        <time>2021-09-26T12:48:20.000Z</time>
      </trkpt>
      <trkpt lat="45.74733" lon="-1.23719">
        <ele>14.7</ele>
        <time>2021-09-26T12:48:17.000Z</time>
      </trkpt>
      <trkpt lat="45.74732" lon="-1.23704">
        <ele>14.7</ele>
        <time>2021-09-26T12:48:10.000Z</time>
      </trkpt>
      <trkpt lat="45.74731" lon="-1.2369">
        <ele>14.7</ele>
        <time>2021-09-26T12:48:04.000Z</time>
      </trkpt>
      <trkpt lat="45.74731" lon="-1.23676">
        <ele>14.9</ele>
        <time>2021-09-26T12:47:59.000Z</time>
      </trkpt>
      <trkpt lat="45.74731" lon="-1.23663">
        <ele>15</ele>
        <time>2021-09-26T12:47:53.000Z</time>
      </trkpt>
      <trkpt lat="45.7473" lon="-1.23648">
        <ele>14.3</ele>
        <time>2021-09-26T12:47:46.000Z</time>
      </trkpt>
      <trkpt lat="45.74731" lon="-1.23633">
        <ele>14.6</ele>
        <time>2021-09-26T12:47:40.000Z</time>
      </trkpt>
      <trkpt lat="45.74733" lon="-1.2362">
        <ele>14.1</ele>
        <time>2021-09-26T12:47:33.000Z</time>
      </trkpt>
      <trkpt lat="45.74742" lon="-1.23613">
        <ele>13.7</ele>
        <time>2021-09-26T12:47:29.000Z</time>
      </trkpt>
      <trkpt lat="45.74751" lon="-1.23607">
        <ele>13.5</ele>
        <time>2021-09-26T12:47:26.000Z</time>
      </trkpt>
      <trkpt lat="45.74763" lon="-1.23602">
        <ele>14.1</ele>
        <time>2021-09-26T12:47:23.000Z</time>
      </trkpt>
      <trkpt lat="45.74773" lon="-1.236">
        <ele>15.4</ele>
        <time>2021-09-26T12:47:20.000Z</time>
      </trkpt>
      <trkpt lat="45.74783" lon="-1.23601">
        <ele>15.1</ele>
        <time>2021-09-26T12:47:17.000Z</time>
      </trkpt>
      <trkpt lat="45.74792" lon="-1.23602">
        <ele>14.6</ele>
        <time>2021-09-26T12:47:14.000Z</time>
      </trkpt>
      <trkpt lat="45.74801" lon="-1.23602">
        <ele>14.6</ele>
        <time>2021-09-26T12:47:11.000Z</time>
      </trkpt>
      <trkpt lat="45.74811" lon="-1.23602">
        <ele>14.6</ele>
        <time>2021-09-26T12:47:07.000Z</time>
      </trkpt>
      <trkpt lat="45.74822" lon="-1.236">
        <ele>14.4</ele>
        <time>2021-09-26T12:47:03.000Z</time>
      </trkpt>
      <trkpt lat="45.7483" lon="-1.2359">
        <ele>14.6</ele>
        <time>2021-09-26T12:47:00.000Z</time>
      </trkpt>
      <trkpt lat="45.74838" lon="-1.23581">
        <ele>14.7</ele>
        <time>2021-09-26T12:46:57.000Z</time>
      </trkpt>
      <trkpt lat="45.74846" lon="-1.23574">
        <ele>14.7</ele>
        <time>2021-09-26T12:46:54.000Z</time>
      </trkpt>
      <trkpt lat="45.74856" lon="-1.23567">
        <ele>14.4</ele>
        <time>2021-09-26T12:46:51.000Z</time>
      </trkpt>
      <trkpt lat="45.74867" lon="-1.23565">
        <ele>14.1</ele>
        <time>2021-09-26T12:46:47.000Z</time>
      </trkpt>
      <trkpt lat="45.74874" lon="-1.23557">
        <ele>14.5</ele>
        <time>2021-09-26T12:46:44.000Z</time>
      </trkpt>
      <trkpt lat="45.74883" lon="-1.23547">
        <ele>14.7</ele>
        <time>2021-09-26T12:46:39.000Z</time>
      </trkpt>
      <trkpt lat="45.7489" lon="-1.23538">
        <ele>14.9</ele>
        <time>2021-09-26T12:46:34.000Z</time>
      </trkpt>
      <trkpt lat="45.749" lon="-1.23534">
        <ele>14.8</ele>
        <time>2021-09-26T12:46:30.000Z</time>
      </trkpt>
      <trkpt lat="45.7491" lon="-1.23527">
        <ele>14.7</ele>
        <time>2021-09-26T12:46:26.000Z</time>
      </trkpt>
      <trkpt lat="45.74921" lon="-1.23521">
        <ele>14.9</ele>
        <time>2021-09-26T12:46:23.000Z</time>
      </trkpt>
      <trkpt lat="45.74931" lon="-1.23514">
        <ele>14.9</ele>
        <time>2021-09-26T12:46:20.000Z</time>
      </trkpt>
      <trkpt lat="45.7494" lon="-1.23507">
        <ele>15</ele>
        <time>2021-09-26T12:46:17.000Z</time>
      </trkpt>
      <trkpt lat="45.74951" lon="-1.23499">
        <ele>15.1</ele>
        <time>2021-09-26T12:46:14.000Z</time>
      </trkpt>
      <trkpt lat="45.74961" lon="-1.23491">
        <ele>14.9</ele>
        <time>2021-09-26T12:46:11.000Z</time>
      </trkpt>
      <trkpt lat="45.74969" lon="-1.23479">
        <ele>15.2</ele>
        <time>2021-09-26T12:46:08.000Z</time>
      </trkpt>
      <trkpt lat="45.74978" lon="-1.23472">
        <ele>15.5</ele>
        <time>2021-09-26T12:46:05.000Z</time>
      </trkpt>
      <trkpt lat="45.74988" lon="-1.23467">
        <ele>15.8</ele>
        <time>2021-09-26T12:46:02.000Z</time>
      </trkpt>
      <trkpt lat="45.74998" lon="-1.23461">
        <ele>16.4</ele>
        <time>2021-09-26T12:45:59.000Z</time>
      </trkpt>
      <trkpt lat="45.7501" lon="-1.2346">
        <ele>16.4</ele>
        <time>2021-09-26T12:45:56.000Z</time>
      </trkpt>
      <trkpt lat="45.7502" lon="-1.23457">
        <ele>16.2</ele>
        <time>2021-09-26T12:45:53.000Z</time>
      </trkpt>
      <trkpt lat="45.75029" lon="-1.23455">
        <ele>15.5</ele>
        <time>2021-09-26T12:45:50.000Z</time>
      </trkpt>
      <trkpt lat="45.75041" lon="-1.23453">
        <ele>14.9</ele>
        <time>2021-09-26T12:45:46.000Z</time>
      </trkpt>
      <trkpt lat="45.75053" lon="-1.23451">
        <ele>15.2</ele>
        <time>2021-09-26T12:45:42.000Z</time>
      </trkpt>
      <trkpt lat="45.75062" lon="-1.23447">
        <ele>14.9</ele>
        <time>2021-09-26T12:45:38.000Z</time>
      </trkpt>
      <trkpt lat="45.75072" lon="-1.23443">
        <ele>15.1</ele>
        <time>2021-09-26T12:45:31.000Z</time>
      </trkpt>
      <trkpt lat="45.75079" lon="-1.23434">
        <ele>15.3</ele>
        <time>2021-09-26T12:45:25.000Z</time>
      </trkpt>
      <trkpt lat="45.75085" lon="-1.23422">
        <ele>15.3</ele>
        <time>2021-09-26T12:45:19.000Z</time>
      </trkpt>
      <trkpt lat="45.75091" lon="-1.23409">
        <ele>15.4</ele>
        <time>2021-09-26T12:45:13.000Z</time>
      </trkpt>
      <trkpt lat="45.75097" lon="-1.23397">
        <ele>15.7</ele>
        <time>2021-09-26T12:45:07.000Z</time>
      </trkpt>
      <trkpt lat="45.75099" lon="-1.23383">
        <ele>15.7</ele>
        <time>2021-09-26T12:45:00.000Z</time>
      </trkpt>
      <trkpt lat="45.751" lon="-1.2337">
        <ele>15.5</ele>
        <time>2021-09-26T12:44:54.000Z</time>
      </trkpt>
      <trkpt lat="45.75102" lon="-1.23355">
        <ele>15.2</ele>
        <time>2021-09-26T12:44:47.000Z</time>
      </trkpt>
      <trkpt lat="45.75105" lon="-1.23341">
        <ele>15.7</ele>
        <time>2021-09-26T12:44:41.000Z</time>
      </trkpt>
      <trkpt lat="45.75103" lon="-1.23328">
        <ele>16.3</ele>
        <time>2021-09-26T12:44:34.000Z</time>
      </trkpt>
      <trkpt lat="45.75104" lon="-1.23313">
        <ele>16.6</ele>
        <time>2021-09-26T12:44:28.000Z</time>
      </trkpt>
      <trkpt lat="45.75106" lon="-1.233">
        <ele>16.9</ele>
        <time>2021-09-26T12:44:23.000Z</time>
      </trkpt>
      <trkpt lat="45.75106" lon="-1.23286">
        <ele>18.2</ele>
        <time>2021-09-26T12:44:17.000Z</time>
      </trkpt>
      <trkpt lat="45.75107" lon="-1.23271">
        <ele>19.4</ele>
        <time>2021-09-26T12:44:10.000Z</time>
      </trkpt>
      <trkpt lat="45.75104" lon="-1.23258">
        <ele>21</ele>
        <time>2021-09-26T12:44:03.000Z</time>
      </trkpt>
      <trkpt lat="45.75104" lon="-1.23243">
        <ele>21.4</ele>
        <time>2021-09-26T12:43:58.000Z</time>
      </trkpt>
      <trkpt lat="45.751" lon="-1.23229">
        <ele>22.2</ele>
        <time>2021-09-26T12:43:50.000Z</time>
      </trkpt>
      <trkpt lat="45.75099" lon="-1.23215">
        <ele>22.3</ele>
        <time>2021-09-26T12:43:45.000Z</time>
      </trkpt>
      <trkpt lat="45.75096" lon="-1.23202">
        <ele>22.3</ele>
        <time>2021-09-26T12:43:38.000Z</time>
      </trkpt>
      <trkpt lat="45.75093" lon="-1.23189">
        <ele>22.3</ele>
        <time>2021-09-26T12:43:31.000Z</time>
      </trkpt>
      <trkpt lat="45.75091" lon="-1.23176">
        <ele>22.2</ele>
        <time>2021-09-26T12:43:26.000Z</time>
      </trkpt>
      <trkpt lat="45.7509" lon="-1.2316">
        <ele>22.1</ele>
        <time>2021-09-26T12:43:20.000Z</time>
      </trkpt>
      <trkpt lat="45.75091" lon="-1.23145">
        <ele>21</ele>
        <time>2021-09-26T12:43:13.000Z</time>
      </trkpt>
      <trkpt lat="45.75091" lon="-1.2313">
        <ele>20.9</ele>
        <time>2021-09-26T12:43:05.000Z</time>
      </trkpt>
      <trkpt lat="45.75094" lon="-1.23116">
        <ele>20.4</ele>
        <time>2021-09-26T12:42:58.000Z</time>
      </trkpt>
      <trkpt lat="45.75096" lon="-1.23101">
        <ele>19.9</ele>
        <time>2021-09-26T12:42:51.000Z</time>
      </trkpt>
      <trkpt lat="45.75098" lon="-1.23087">
        <ele>18.9</ele>
        <time>2021-09-26T12:42:44.000Z</time>
      </trkpt>
      <trkpt lat="45.75103" lon="-1.23074">
        <ele>18.6</ele>
        <time>2021-09-26T12:42:39.000Z</time>
      </trkpt>
      <trkpt lat="45.75108" lon="-1.23062">
        <ele>18.9</ele>
        <time>2021-09-26T12:42:34.000Z</time>
      </trkpt>
      <trkpt lat="45.7511" lon="-1.23049">
        <ele>19.5</ele>
        <time>2021-09-26T12:42:27.000Z</time>
      </trkpt>
      <trkpt lat="45.75109" lon="-1.23035">
        <ele>18.7</ele>
        <time>2021-09-26T12:42:19.000Z</time>
      </trkpt>
      <trkpt lat="45.75111" lon="-1.23021">
        <ele>18.5</ele>
        <time>2021-09-26T12:42:10.000Z</time>
      </trkpt>
      <trkpt lat="45.75114" lon="-1.23006">
        <ele>18.2</ele>
        <time>2021-09-26T12:42:03.000Z</time>
      </trkpt>
      <trkpt lat="45.75118" lon="-1.22994">
        <ele>17.2</ele>
        <time>2021-09-26T12:41:57.000Z</time>
      </trkpt>
      <trkpt lat="45.75121" lon="-1.22979">
        <ele>16.7</ele>
        <time>2021-09-26T12:41:51.000Z</time>
      </trkpt>
      <trkpt lat="45.75118" lon="-1.22966">
        <ele>16.7</ele>
        <time>2021-09-26T12:41:45.000Z</time>
      </trkpt>
      <trkpt lat="45.75113" lon="-1.22956">
        <ele>16.7</ele>
        <time>2021-09-26T12:41:40.000Z</time>
      </trkpt>
      <trkpt lat="45.75108" lon="-1.22945">
        <ele>16.7</ele>
        <time>2021-09-26T12:41:34.000Z</time>
      </trkpt>
      <trkpt lat="45.75102" lon="-1.22933">
        <ele>16.3</ele>
        <time>2021-09-26T12:41:26.000Z</time>
      </trkpt>
      <trkpt lat="45.75097" lon="-1.2292">
        <ele>16.2</ele>
        <time>2021-09-26T12:41:19.000Z</time>
      </trkpt>
      <trkpt lat="45.75091" lon="-1.22908">
        <ele>15.9</ele>
        <time>2021-09-26T12:41:12.000Z</time>
      </trkpt>
      <trkpt lat="45.75086" lon="-1.22895">
        <ele>15.7</ele>
        <time>2021-09-26T12:41:05.000Z</time>
      </trkpt>
      <trkpt lat="45.75082" lon="-1.22884">
        <ele>15.7</ele>
        <time>2021-09-26T12:40:59.000Z</time>
      </trkpt>
      <trkpt lat="45.75077" lon="-1.22872">
        <ele>15.6</ele>
        <time>2021-09-26T12:40:53.000Z</time>
      </trkpt>
      <trkpt lat="45.75072" lon="-1.22861">
        <ele>15.7</ele>
        <time>2021-09-26T12:40:47.000Z</time>
      </trkpt>
      <trkpt lat="45.7507" lon="-1.22848">
        <ele>16.5</ele>
        <time>2021-09-26T12:40:41.000Z</time>
      </trkpt>
      <trkpt lat="45.75069" lon="-1.22834">
        <ele>16.8</ele>
        <time>2021-09-26T12:40:35.000Z</time>
      </trkpt>
      <trkpt lat="45.7507" lon="-1.22821">
        <ele>16.4</ele>
        <time>2021-09-26T12:40:27.000Z</time>
      </trkpt>
      <trkpt lat="45.75069" lon="-1.22808">
        <ele>16.5</ele>
        <time>2021-09-26T12:40:20.000Z</time>
      </trkpt>
      <trkpt lat="45.75069" lon="-1.22794">
        <ele>16.8</ele>
        <time>2021-09-26T12:40:14.000Z</time>
      </trkpt>
      <trkpt lat="45.75068" lon="-1.22778">
        <ele>17.4</ele>
        <time>2021-09-26T12:40:08.000Z</time>
      </trkpt>
      <trkpt lat="45.75068" lon="-1.22764">
        <ele>18.5</ele>
        <time>2021-09-26T12:40:01.000Z</time>
      </trkpt>
      <trkpt lat="45.75067" lon="-1.22751">
        <ele>19.3</ele>
        <time>2021-09-26T12:39:55.000Z</time>
      </trkpt>
      <trkpt lat="45.75068" lon="-1.22736">
        <ele>19.3</ele>
        <time>2021-09-26T12:39:49.000Z</time>
      </trkpt>
      <trkpt lat="45.75065" lon="-1.22722">
        <ele>18.4</ele>
        <time>2021-09-26T12:39:42.000Z</time>
      </trkpt>
      <trkpt lat="45.75065" lon="-1.22709">
        <ele>18</ele>
        <time>2021-09-26T12:39:36.000Z</time>
      </trkpt>
      <trkpt lat="45.75065" lon="-1.22695">
        <ele>17.6</ele>
        <time>2021-09-26T12:39:30.000Z</time>
      </trkpt>
      <trkpt lat="45.75064" lon="-1.22681">
        <ele>17.4</ele>
        <time>2021-09-26T12:39:24.000Z</time>
      </trkpt>
      <trkpt lat="45.75063" lon="-1.22668">
        <ele>17.3</ele>
        <time>2021-09-26T12:39:18.000Z</time>
      </trkpt>
      <trkpt lat="45.75063" lon="-1.22654">
        <ele>17.1</ele>
        <time>2021-09-26T12:39:12.000Z</time>
      </trkpt>
      <trkpt lat="45.75063" lon="-1.22639">
        <ele>17</ele>
        <time>2021-09-26T12:39:05.000Z</time>
      </trkpt>
      <trkpt lat="45.75064" lon="-1.22625">
        <ele>16.6</ele>
        <time>2021-09-26T12:38:59.000Z</time>
      </trkpt>
      <trkpt lat="45.75072" lon="-1.22617">
        <ele>16.8</ele>
        <time>2021-09-26T12:38:53.000Z</time>
      </trkpt>
      <trkpt lat="45.7508" lon="-1.22608">
        <ele>16.8</ele>
        <time>2021-09-26T12:38:47.000Z</time>
      </trkpt>
      <trkpt lat="45.7508" lon="-1.22595">
        <ele>16.8</ele>
        <time>2021-09-26T12:38:41.000Z</time>
      </trkpt>
      <trkpt lat="45.7508" lon="-1.22581">
        <ele>16.8</ele>
        <time>2021-09-26T12:38:35.000Z</time>
      </trkpt>
      <trkpt lat="45.7508" lon="-1.22567">
        <ele>16.8</ele>
        <time>2021-09-26T12:38:28.000Z</time>
      </trkpt>
      <trkpt lat="45.75079" lon="-1.22553">
        <ele>16.6</ele>
        <time>2021-09-26T12:38:22.000Z</time>
      </trkpt>
      <trkpt lat="45.75079" lon="-1.2254">
        <ele>16.5</ele>
        <time>2021-09-26T12:38:16.000Z</time>
      </trkpt>
      <trkpt lat="45.75079" lon="-1.22525">
        <ele>16.5</ele>
        <time>2021-09-26T12:38:10.000Z</time>
      </trkpt>
      <trkpt lat="45.75081" lon="-1.2251">
        <ele>16.5</ele>
        <time>2021-09-26T12:38:04.000Z</time>
      </trkpt>
      <trkpt lat="45.75082" lon="-1.22496">
        <ele>16.1</ele>
        <time>2021-09-26T12:37:57.000Z</time>
      </trkpt>
      <trkpt lat="45.75084" lon="-1.22482">
        <ele>16.7</ele>
        <time>2021-09-26T12:37:51.000Z</time>
      </trkpt>
      <trkpt lat="45.75085" lon="-1.22467">
        <ele>16.8</ele>
        <time>2021-09-26T12:37:45.000Z</time>
      </trkpt>
      <trkpt lat="45.7509" lon="-1.22453">
        <ele>16.8</ele>
        <time>2021-09-26T12:37:38.000Z</time>
      </trkpt>
      <trkpt lat="45.75093" lon="-1.22439">
        <ele>16.8</ele>
        <time>2021-09-26T12:37:31.000Z</time>
      </trkpt>
      <trkpt lat="45.75098" lon="-1.22426">
        <ele>16.8</ele>
        <time>2021-09-26T12:37:23.000Z</time>
      </trkpt>
      <trkpt lat="45.75103" lon="-1.22414">
        <ele>16.9</ele>
        <time>2021-09-26T12:37:18.000Z</time>
      </trkpt>
      <trkpt lat="45.75109" lon="-1.22402">
        <ele>17.2</ele>
        <time>2021-09-26T12:37:11.000Z</time>
      </trkpt>
      <trkpt lat="45.75114" lon="-1.2239">
        <ele>17.5</ele>
        <time>2021-09-26T12:37:05.000Z</time>
      </trkpt>
      <trkpt lat="45.75116" lon="-1.22378">
        <ele>17.2</ele>
        <time>2021-09-26T12:36:59.000Z</time>
      </trkpt>
      <trkpt lat="45.75121" lon="-1.22365">
        <ele>17.2</ele>
        <time>2021-09-26T12:36:53.000Z</time>
      </trkpt>
      <trkpt lat="45.75126" lon="-1.2235">
        <ele>17.3</ele>
        <time>2021-09-26T12:36:48.000Z</time>
      </trkpt>
      <trkpt lat="45.75131" lon="-1.22335">
        <ele>18</ele>
        <time>2021-09-26T12:36:41.000Z</time>
      </trkpt>
      <trkpt lat="45.75132" lon="-1.22322">
        <ele>18.6</ele>
        <time>2021-09-26T12:36:34.000Z</time>
      </trkpt>
      <trkpt lat="45.75131" lon="-1.22307">
        <ele>18.5</ele>
        <time>2021-09-26T12:36:24.000Z</time>
      </trkpt>
      <trkpt lat="45.75133" lon="-1.22294">
        <ele>18.3</ele>
        <time>2021-09-26T12:36:18.000Z</time>
      </trkpt>
      <trkpt lat="45.75138" lon="-1.2228">
        <ele>18.1</ele>
        <time>2021-09-26T12:36:13.000Z</time>
      </trkpt>
      <trkpt lat="45.75143" lon="-1.22268">
        <ele>17.6</ele>
        <time>2021-09-26T12:36:06.000Z</time>
      </trkpt>
      <trkpt lat="45.75148" lon="-1.22256">
        <ele>17.8</ele>
        <time>2021-09-26T12:35:57.000Z</time>
      </trkpt>
      <trkpt lat="45.75154" lon="-1.22245">
        <ele>17.8</ele>
        <time>2021-09-26T12:35:50.000Z</time>
      </trkpt>
      <trkpt lat="45.7516" lon="-1.22232">
        <ele>17.6</ele>
        <time>2021-09-26T12:35:43.000Z</time>
      </trkpt>
      <trkpt lat="45.75165" lon="-1.2222">
        <ele>17.5</ele>
        <time>2021-09-26T12:35:36.000Z</time>
      </trkpt>
      <trkpt lat="45.7517" lon="-1.22207">
        <ele>17.3</ele>
        <time>2021-09-26T12:35:30.000Z</time>
      </trkpt>
      <trkpt lat="45.75177" lon="-1.22196">
        <ele>17.3</ele>
        <time>2021-09-26T12:35:26.000Z</time>
      </trkpt>
      <trkpt lat="45.7518" lon="-1.22183">
        <ele>17.3</ele>
        <time>2021-09-26T12:35:19.000Z</time>
      </trkpt>
      <trkpt lat="45.75181" lon="-1.22169">
        <ele>17.4</ele>
        <time>2021-09-26T12:35:10.000Z</time>
      </trkpt>
      <trkpt lat="45.75184" lon="-1.22156">
        <ele>17.8</ele>
        <time>2021-09-26T12:35:03.000Z</time>
      </trkpt>
      <trkpt lat="45.75191" lon="-1.22145">
        <ele>17.9</ele>
        <time>2021-09-26T12:34:57.000Z</time>
      </trkpt>
      <trkpt lat="45.75199" lon="-1.22137">
        <ele>18.2</ele>
        <time>2021-09-26T12:34:49.000Z</time>
      </trkpt>
      <trkpt lat="45.75206" lon="-1.22128">
        <ele>18.4</ele>
        <time>2021-09-26T12:34:43.000Z</time>
      </trkpt>
      <trkpt lat="45.75213" lon="-1.22116">
        <ele>18.3</ele>
        <time>2021-09-26T12:34:36.000Z</time>
      </trkpt>
      <trkpt lat="45.75218" lon="-1.22103">
        <ele>18.1</ele>
        <time>2021-09-26T12:34:29.000Z</time>
      </trkpt>
      <trkpt lat="45.75223" lon="-1.2209">
        <ele>18.1</ele>
        <time>2021-09-26T12:34:23.000Z</time>
      </trkpt>
      <trkpt lat="45.75229" lon="-1.2208">
        <ele>18.1</ele>
        <time>2021-09-26T12:34:16.000Z</time>
      </trkpt>
      <trkpt lat="45.75233" lon="-1.22066">
        <ele>18.1</ele>
        <time>2021-09-26T12:34:11.000Z</time>
      </trkpt>
      <trkpt lat="45.75234" lon="-1.22052">
        <ele>18.4</ele>
        <time>2021-09-26T12:34:04.000Z</time>
      </trkpt>
      <trkpt lat="45.75234" lon="-1.22039">
        <ele>18.7</ele>
        <time>2021-09-26T12:33:59.000Z</time>
      </trkpt>
      <trkpt lat="45.75233" lon="-1.22024">
        <ele>18.7</ele>
        <time>2021-09-26T12:33:52.000Z</time>
      </trkpt>
      <trkpt lat="45.75235" lon="-1.22011">
        <ele>18.8</ele>
        <time>2021-09-26T12:33:46.000Z</time>
      </trkpt>
      <trkpt lat="45.75236" lon="-1.21997">
        <ele>19.2</ele>
        <time>2021-09-26T12:33:40.000Z</time>
      </trkpt>
      <trkpt lat="45.75236" lon="-1.21983">
        <ele>20</ele>
        <time>2021-09-26T12:33:35.000Z</time>
      </trkpt>
      <trkpt lat="45.75233" lon="-1.2197">
        <ele>20.4</ele>
        <time>2021-09-26T12:33:27.000Z</time>
      </trkpt>
      <trkpt lat="45.75234" lon="-1.21956">
        <ele>20.4</ele>
        <time>2021-09-26T12:33:21.000Z</time>
      </trkpt>
      <trkpt lat="45.75232" lon="-1.21943">
        <ele>20.5</ele>
        <time>2021-09-26T12:33:15.000Z</time>
      </trkpt>
      <trkpt lat="45.75233" lon="-1.21927">
        <ele>20.9</ele>
        <time>2021-09-26T12:33:09.000Z</time>
      </trkpt>
      <trkpt lat="45.75236" lon="-1.21913">
        <ele>21.7</ele>
        <time>2021-09-26T12:33:03.000Z</time>
      </trkpt>
      <trkpt lat="45.75234" lon="-1.21898">
        <ele>22.2</ele>
        <time>2021-09-26T12:32:57.000Z</time>
      </trkpt>
      <trkpt lat="45.75231" lon="-1.21885">
        <ele>23.4</ele>
        <time>2021-09-26T12:32:50.000Z</time>
      </trkpt>
      <trkpt lat="45.75229" lon="-1.2187">
        <ele>24.7</ele>
        <time>2021-09-26T12:32:43.000Z</time>
      </trkpt>
      <trkpt lat="45.75227" lon="-1.21857">
        <ele>25.7</ele>
        <time>2021-09-26T12:32:36.000Z</time>
      </trkpt>
      <trkpt lat="45.7523" lon="-1.21844">
        <ele>25.9</ele>
        <time>2021-09-26T12:32:30.000Z</time>
      </trkpt>
      <trkpt lat="45.75229" lon="-1.21831">
        <ele>26.7</ele>
        <time>2021-09-26T12:32:24.000Z</time>
      </trkpt>
      <trkpt lat="45.75222" lon="-1.21818">
        <ele>27.2</ele>
        <time>2021-09-26T12:32:19.000Z</time>
      </trkpt>
      <trkpt lat="45.7522" lon="-1.21802">
        <ele>27.7</ele>
        <time>2021-09-26T12:32:12.000Z</time>
      </trkpt>
      <trkpt lat="45.75219" lon="-1.21788">
        <ele>28.2</ele>
        <time>2021-09-26T12:32:04.000Z</time>
      </trkpt>
      <trkpt lat="45.75218" lon="-1.21775">
        <ele>28.2</ele>
        <time>2021-09-26T12:31:56.000Z</time>
      </trkpt>
      <trkpt lat="45.75214" lon="-1.21762">
        <ele>28.1</ele>
        <time>2021-09-26T12:31:50.000Z</time>
      </trkpt>
      <trkpt lat="45.75212" lon="-1.21748">
        <ele>28</ele>
        <time>2021-09-26T12:31:42.000Z</time>
      </trkpt>
      <trkpt lat="45.75216" lon="-1.21735">
        <ele>27.8</ele>
        <time>2021-09-26T12:31:33.000Z</time>
      </trkpt>
      <trkpt lat="45.75216" lon="-1.21722">
        <ele>26.7</ele>
        <time>2021-09-26T12:31:25.000Z</time>
      </trkpt>
      <trkpt lat="45.75212" lon="-1.21709">
        <ele>25.1</ele>
        <time>2021-09-26T12:31:17.000Z</time>
      </trkpt>
      <trkpt lat="45.75214" lon="-1.21696">
        <ele>23.2</ele>
        <time>2021-09-26T12:31:06.000Z</time>
      </trkpt>
      <trkpt lat="45.75214" lon="-1.21682">
        <ele>21.6</ele>
        <time>2021-09-26T12:30:58.000Z</time>
      </trkpt>
      <trkpt lat="45.75213" lon="-1.21669">
        <ele>20.8</ele>
        <time>2021-09-26T12:30:53.000Z</time>
      </trkpt>
      <trkpt lat="45.75208" lon="-1.21658">
        <ele>19.3</ele>
        <time>2021-09-26T12:30:17.000Z</time>
      </trkpt>
      <trkpt lat="45.75215" lon="-1.2165">
        <ele>18.5</ele>
        <time>2021-09-26T12:30:02.000Z</time>
      </trkpt>
      <trkpt lat="45.75214" lon="-1.21636">
        <ele>18.2</ele>
        <time>2021-09-26T12:29:52.000Z</time>
      </trkpt>
      <trkpt lat="45.75217" lon="-1.21622">
        <ele>18.2</ele>
        <time>2021-09-26T12:29:43.000Z</time>
      </trkpt>
      <trkpt lat="45.75222" lon="-1.21609">
        <ele>18.2</ele>
        <time>2021-09-26T12:29:32.000Z</time>
      </trkpt>
      <trkpt lat="45.75221" lon="-1.21596">
        <ele>18.2</ele>
        <time>2021-09-26T12:29:24.000Z</time>
      </trkpt>
      <trkpt lat="45.75226" lon="-1.21584">
        <ele>18.1</ele>
        <time>2021-09-26T12:29:06.000Z</time>
      </trkpt>
      <trkpt lat="45.75218" lon="-1.21578">
        <ele>17.8</ele>
        <time>2021-09-26T12:29:00.000Z</time>
      </trkpt>
      <trkpt lat="45.75209" lon="-1.21583">
        <ele>17.8</ele>
        <time>2021-09-26T12:27:17.000Z</time>
      </trkpt>
      <trkpt lat="45.75213" lon="-1.2157">
        <ele>17.5</ele>
        <time>2021-09-26T12:27:01.000Z</time>
      </trkpt>
      <trkpt lat="45.75213" lon="-1.21557">
        <ele>17.6</ele>
        <time>2021-09-26T12:26:52.000Z</time>
      </trkpt>
      <trkpt lat="45.7521" lon="-1.21544">
        <ele>17.7</ele>
        <time>2021-09-26T12:26:26.000Z</time>
      </trkpt>
      <trkpt lat="45.75219" lon="-1.21543">
        <ele>17.7</ele>
        <time>2021-09-26T12:24:30.000Z</time>
      </trkpt>
      <trkpt lat="45.75225" lon="-1.21533">
        <ele>18</ele>
        <time>2021-09-26T12:23:53.000Z</time>
      </trkpt>
      <trkpt lat="45.75219" lon="-1.21544">
        <ele>18</ele>
        <time>2021-09-26T12:23:30.000Z</time>
      </trkpt>
      <trkpt lat="45.75215" lon="-1.21557">
        <ele>18</ele>
        <time>2021-09-26T12:23:26.000Z</time>
      </trkpt>
      <trkpt lat="45.75209" lon="-1.21547">
        <ele>18.2</ele>
        <time>2021-09-26T12:23:08.000Z</time>
      </trkpt>
      <trkpt lat="45.75207" lon="-1.21532">
        <ele>18.3</ele>
        <time>2021-09-26T12:22:02.000Z</time>
      </trkpt>
      <trkpt lat="45.75215" lon="-1.21538">
        <ele>18.3</ele>
        <time>2021-09-26T12:21:40.000Z</time>
      </trkpt>
      <trkpt lat="45.75207" lon="-1.21545">
        <ele>18.7</ele>
        <time>2021-09-26T12:20:59.000Z</time>
      </trkpt>
      <trkpt lat="45.75211" lon="-1.21533">
        <ele>18.8</ele>
        <time>2021-09-26T12:20:21.000Z</time>
      </trkpt>
      <trkpt lat="45.75203" lon="-1.21527">
        <ele>18.8</ele>
        <time>2021-09-26T12:20:05.000Z</time>
      </trkpt>
      <trkpt lat="45.75214" lon="-1.21533">
        <ele>18.7</ele>
        <time>2021-09-26T12:19:22.000Z</time>
      </trkpt>
      <trkpt lat="45.75208" lon="-1.21545">
        <ele>18.5</ele>
        <time>2021-09-26T11:40:10.000Z</time>
      </trkpt>
      <trkpt lat="45.75206" lon="-1.21538">
        <ele>18.1</ele>
        <time>2021-09-26T11:37:45.000Z</time>
      </trkpt>
      <trkpt lat="45.75202" lon="-1.21525">
        <ele>17.8</ele>
        <time>2021-09-26T11:37:36.000Z</time>
      </trkpt>
      <trkpt lat="45.75193" lon="-1.21524">
        <ele>17.8</ele>
        <time>2021-09-26T11:37:07.000Z</time>
      </trkpt>
      <trkpt lat="45.75203" lon="-1.21524">
        <ele>18.2</ele>
        <time>2021-09-26T11:36:57.000Z</time>
      </trkpt>
      <trkpt lat="45.75207" lon="-1.21536">
        <ele>18.8</ele>
        <time>2021-09-26T11:36:17.000Z</time>
      </trkpt>
      <trkpt lat="45.75216" lon="-1.21529">
        <ele>19.8</ele>
        <time>2021-09-26T11:36:01.000Z</time>
      </trkpt>
      <trkpt lat="45.75212" lon="-1.21517">
        <ele>20.1</ele>
        <time>2021-09-26T11:35:56.000Z</time>
      </trkpt>
      <trkpt lat="45.75211" lon="-1.21503">
        <ele>20.7</ele>
        <time>2021-09-26T11:35:49.000Z</time>
      </trkpt>
      <trkpt lat="45.75212" lon="-1.21489">
        <ele>21</ele>
        <time>2021-09-26T11:35:42.000Z</time>
      </trkpt>
      <trkpt lat="45.75215" lon="-1.21477">
        <ele>21.4</ele>
        <time>2021-09-26T11:35:04.000Z</time>
      </trkpt>
      <trkpt lat="45.75224" lon="-1.21474">
        <ele>21.6</ele>
        <time>2021-09-26T11:34:28.000Z</time>
      </trkpt>
      <trkpt lat="45.75233" lon="-1.2147">
        <ele>21.6</ele>
        <time>2021-09-26T11:34:22.000Z</time>
      </trkpt>
      <trkpt lat="45.75242" lon="-1.21466">
        <ele>21.6</ele>
        <time>2021-09-26T11:34:16.000Z</time>
      </trkpt>
      <trkpt lat="45.75251" lon="-1.2146">
        <ele>21.5</ele>
        <time>2021-09-26T11:34:09.000Z</time>
      </trkpt>
      <trkpt lat="45.7526" lon="-1.21456">
        <ele>21.6</ele>
        <time>2021-09-26T11:34:04.000Z</time>
      </trkpt>
      <trkpt lat="45.75269" lon="-1.2145">
        <ele>22.3</ele>
        <time>2021-09-26T11:33:55.000Z</time>
      </trkpt>
      <trkpt lat="45.75278" lon="-1.21447">
        <ele>22.4</ele>
        <time>2021-09-26T11:33:50.000Z</time>
      </trkpt>
      <trkpt lat="45.75287" lon="-1.2144">
        <ele>22.5</ele>
        <time>2021-09-26T11:33:45.000Z</time>
      </trkpt>
      <trkpt lat="45.75297" lon="-1.21435">
        <ele>22.6</ele>
        <time>2021-09-26T11:33:41.000Z</time>
      </trkpt>
      <trkpt lat="45.75306" lon="-1.21427">
        <ele>23.3</ele>
        <time>2021-09-26T11:33:36.000Z</time>
      </trkpt>
      <trkpt lat="45.75314" lon="-1.21423">
        <ele>24.3</ele>
        <time>2021-09-26T11:33:33.000Z</time>
      </trkpt>
      <trkpt lat="45.75323" lon="-1.21418">
        <ele>24.3</ele>
        <time>2021-09-26T11:33:30.000Z</time>
      </trkpt>
      <trkpt lat="45.75333" lon="-1.21412">
        <ele>24.6</ele>
        <time>2021-09-26T11:33:26.000Z</time>
      </trkpt>
      <trkpt lat="45.75343" lon="-1.21399">
        <ele>25.6</ele>
        <time>2021-09-26T11:33:22.000Z</time>
      </trkpt>
      <trkpt lat="45.7535" lon="-1.21391">
        <ele>25.8</ele>
        <time>2021-09-26T11:33:19.000Z</time>
      </trkpt>
      <trkpt lat="45.75356" lon="-1.2138">
        <ele>26.2</ele>
        <time>2021-09-26T11:33:16.000Z</time>
      </trkpt>
      <trkpt lat="45.75363" lon="-1.21371">
        <ele>26.2</ele>
        <time>2021-09-26T11:33:12.000Z</time>
      </trkpt>
      <trkpt lat="45.7537" lon="-1.21361">
        <ele>25.5</ele>
        <time>2021-09-26T11:33:08.000Z</time>
      </trkpt>
      <trkpt lat="45.75377" lon="-1.21347">
        <ele>25.1</ele>
        <time>2021-09-26T11:33:04.000Z</time>
      </trkpt>
      <trkpt lat="45.75379" lon="-1.21333">
        <ele>25.5</ele>
        <time>2021-09-26T11:32:59.000Z</time>
      </trkpt>
      <trkpt lat="45.75382" lon="-1.2132">
        <ele>25.6</ele>
        <time>2021-09-26T11:32:52.000Z</time>
      </trkpt>
      <trkpt lat="45.75387" lon="-1.21307">
        <ele>25.8</ele>
        <time>2021-09-26T11:32:47.000Z</time>
      </trkpt>
      <trkpt lat="45.75389" lon="-1.21293">
        <ele>25.7</ele>
        <time>2021-09-26T11:32:41.000Z</time>
      </trkpt>
      <trkpt lat="45.7539" lon="-1.21278">
        <ele>26.2</ele>
        <time>2021-09-26T11:32:35.000Z</time>
      </trkpt>
      <trkpt lat="45.75395" lon="-1.21264">
        <ele>26.2</ele>
        <time>2021-09-26T11:32:28.000Z</time>
      </trkpt>
      <trkpt lat="45.75397" lon="-1.21252">
        <ele>26</ele>
        <time>2021-09-26T11:32:22.000Z</time>
      </trkpt>
      <trkpt lat="45.754" lon="-1.21238">
        <ele>25.8</ele>
        <time>2021-09-26T11:32:15.000Z</time>
      </trkpt>
      <trkpt lat="45.75404" lon="-1.21223">
        <ele>25.3</ele>
        <time>2021-09-26T11:32:09.000Z</time>
      </trkpt>
      <trkpt lat="45.75408" lon="-1.21208">
        <ele>25.1</ele>
        <time>2021-09-26T11:32:03.000Z</time>
      </trkpt>
      <trkpt lat="45.75412" lon="-1.21195">
        <ele>24.6</ele>
        <time>2021-09-26T11:31:57.000Z</time>
      </trkpt>
      <trkpt lat="45.75416" lon="-1.21184">
        <ele>24.2</ele>
        <time>2021-09-26T11:31:52.000Z</time>
      </trkpt>
      <trkpt lat="45.75421" lon="-1.21169">
        <ele>24.1</ele>
        <time>2021-09-26T11:31:47.000Z</time>
      </trkpt>
      <trkpt lat="45.75424" lon="-1.21155">
        <ele>23.9</ele>
        <time>2021-09-26T11:31:40.000Z</time>
      </trkpt>
      <trkpt lat="45.75427" lon="-1.21141">
        <ele>23.8</ele>
        <time>2021-09-26T11:31:33.000Z</time>
      </trkpt>
      <trkpt lat="45.75431" lon="-1.21127">
        <ele>23.8</ele>
        <time>2021-09-26T11:31:26.000Z</time>
      </trkpt>
      <trkpt lat="45.75435" lon="-1.21114">
        <ele>23.4</ele>
        <time>2021-09-26T11:31:18.000Z</time>
      </trkpt>
      <trkpt lat="45.7544" lon="-1.21102">
        <ele>24.6</ele>
        <time>2021-09-26T11:31:12.000Z</time>
      </trkpt>
      <trkpt lat="45.75446" lon="-1.21091">
        <ele>25.3</ele>
        <time>2021-09-26T11:31:08.000Z</time>
      </trkpt>
      <trkpt lat="45.75451" lon="-1.21079">
        <ele>25.9</ele>
        <time>2021-09-26T11:31:02.000Z</time>
      </trkpt>
      <trkpt lat="45.75456" lon="-1.21067">
        <ele>26.4</ele>
        <time>2021-09-26T11:30:56.000Z</time>
      </trkpt>
      <trkpt lat="45.75461" lon="-1.21055">
        <ele>27.2</ele>
        <time>2021-09-26T11:30:50.000Z</time>
      </trkpt>
      <trkpt lat="45.75468" lon="-1.21048">
        <ele>27.5</ele>
        <time>2021-09-26T11:30:46.000Z</time>
      </trkpt>
      <trkpt lat="45.75475" lon="-1.21035">
        <ele>27.9</ele>
        <time>2021-09-26T11:30:40.000Z</time>
      </trkpt>
      <trkpt lat="45.7548" lon="-1.21023">
        <ele>28.6</ele>
        <time>2021-09-26T11:30:34.000Z</time>
      </trkpt>
      <trkpt lat="45.75486" lon="-1.21013">
        <ele>30</ele>
        <time>2021-09-26T11:30:28.000Z</time>
      </trkpt>
      <trkpt lat="45.75494" lon="-1.21002">
        <ele>30.6</ele>
        <time>2021-09-26T11:30:21.000Z</time>
      </trkpt>
      <trkpt lat="45.755" lon="-1.20992">
        <ele>30.5</ele>
        <time>2021-09-26T11:30:16.000Z</time>
      </trkpt>
      <trkpt lat="45.75509" lon="-1.20984">
        <ele>30.1</ele>
        <time>2021-09-26T11:30:09.000Z</time>
      </trkpt>
      <trkpt lat="45.75516" lon="-1.20974">
        <ele>29.5</ele>
        <time>2021-09-26T11:30:02.000Z</time>
      </trkpt>
      <trkpt lat="45.75523" lon="-1.20962">
        <ele>29.1</ele>
        <time>2021-09-26T11:29:56.000Z</time>
      </trkpt>
      <trkpt lat="45.75528" lon="-1.20948">
        <ele>28.8</ele>
        <time>2021-09-26T11:29:48.000Z</time>
      </trkpt>
      <trkpt lat="45.75531" lon="-1.20935">
        <ele>28.5</ele>
        <time>2021-09-26T11:29:42.000Z</time>
      </trkpt>
      <trkpt lat="45.75534" lon="-1.20922">
        <ele>28.2</ele>
        <time>2021-09-26T11:29:36.000Z</time>
      </trkpt>
      <trkpt lat="45.75538" lon="-1.20911">
        <ele>28</ele>
        <time>2021-09-26T11:29:29.000Z</time>
      </trkpt>
      <trkpt lat="45.75544" lon="-1.20898">
        <ele>27.4</ele>
        <time>2021-09-26T11:29:24.000Z</time>
      </trkpt>
      <trkpt lat="45.75548" lon="-1.20884">
        <ele>26.8</ele>
        <time>2021-09-26T11:29:17.000Z</time>
      </trkpt>
      <trkpt lat="45.7555" lon="-1.20872">
        <ele>26</ele>
        <time>2021-09-26T11:29:11.000Z</time>
      </trkpt>
      <trkpt lat="45.75553" lon="-1.20857">
        <ele>25.3</ele>
        <time>2021-09-26T11:29:04.000Z</time>
      </trkpt>
      <trkpt lat="45.7555" lon="-1.20844">
        <ele>25.2</ele>
        <time>2021-09-26T11:28:59.000Z</time>
      </trkpt>
      <trkpt lat="45.75548" lon="-1.20831">
        <ele>25.2</ele>
        <time>2021-09-26T11:28:54.000Z</time>
      </trkpt>
      <trkpt lat="45.75549" lon="-1.20817">
        <ele>25</ele>
        <time>2021-09-26T11:28:48.000Z</time>
      </trkpt>
      <trkpt lat="45.75551" lon="-1.20803">
        <ele>25.2</ele>
        <time>2021-09-26T11:28:40.000Z</time>
      </trkpt>
      <trkpt lat="45.7555" lon="-1.2079">
        <ele>25.7</ele>
        <time>2021-09-26T11:28:34.000Z</time>
      </trkpt>
      <trkpt lat="45.75543" lon="-1.20781">
        <ele>25.8</ele>
        <time>2021-09-26T11:28:26.000Z</time>
      </trkpt>
      <trkpt lat="45.75534" lon="-1.20776">
        <ele>26.3</ele>
        <time>2021-09-26T11:28:21.000Z</time>
      </trkpt>
      <trkpt lat="45.75523" lon="-1.20772">
        <ele>26.7</ele>
        <time>2021-09-26T11:28:15.000Z</time>
      </trkpt>
      <trkpt lat="45.75514" lon="-1.20767">
        <ele>27.5</ele>
        <time>2021-09-26T11:28:09.000Z</time>
      </trkpt>
      <trkpt lat="45.75505" lon="-1.20763">
        <ele>28.4</ele>
        <time>2021-09-26T11:28:02.000Z</time>
      </trkpt>
      <trkpt lat="45.75496" lon="-1.20759">
        <ele>29.2</ele>
        <time>2021-09-26T11:27:55.000Z</time>
      </trkpt>
      <trkpt lat="45.75487" lon="-1.20753">
        <ele>29.9</ele>
        <time>2021-09-26T11:27:47.000Z</time>
      </trkpt>
      <trkpt lat="45.75479" lon="-1.20746">
        <ele>30.1</ele>
        <time>2021-09-26T11:27:40.000Z</time>
      </trkpt>
      <trkpt lat="45.7547" lon="-1.20747">
        <ele>30.3</ele>
        <time>2021-09-26T11:27:36.000Z</time>
      </trkpt>
      <trkpt lat="45.7546" lon="-1.20745">
        <ele>29.6</ele>
        <time>2021-09-26T11:27:28.000Z</time>
      </trkpt>
      <trkpt lat="45.75449" lon="-1.20745">
        <ele>29.7</ele>
        <time>2021-09-26T11:27:22.000Z</time>
      </trkpt>
      <trkpt lat="45.75439" lon="-1.20745">
        <ele>29.8</ele>
        <time>2021-09-26T11:27:16.000Z</time>
      </trkpt>
      <trkpt lat="45.75429" lon="-1.20745">
        <ele>31</ele>
        <time>2021-09-26T11:27:09.000Z</time>
      </trkpt>
      <trkpt lat="45.75419" lon="-1.20745">
        <ele>30.6</ele>
        <time>2021-09-26T11:27:02.000Z</time>
      </trkpt>
      <trkpt lat="45.7541" lon="-1.20745">
        <ele>31.1</ele>
        <time>2021-09-26T11:26:57.000Z</time>
      </trkpt>
      <trkpt lat="45.75401" lon="-1.20743">
        <ele>30.6</ele>
        <time>2021-09-26T11:26:51.000Z</time>
      </trkpt>
      <trkpt lat="45.75391" lon="-1.20743">
        <ele>29.9</ele>
        <time>2021-09-26T11:26:46.000Z</time>
      </trkpt>
      <trkpt lat="45.75383" lon="-1.2074">
        <ele>28.8</ele>
        <time>2021-09-26T11:26:42.000Z</time>
      </trkpt>
      <trkpt lat="45.75374" lon="-1.20738">
        <ele>27.2</ele>
        <time>2021-09-26T11:26:39.000Z</time>
      </trkpt>
      <trkpt lat="45.75364" lon="-1.20734">
        <ele>25.2</ele>
        <time>2021-09-26T11:26:36.000Z</time>
      </trkpt>
      <trkpt lat="45.75352" lon="-1.20733">
        <ele>23.6</ele>
        <time>2021-09-26T11:26:33.000Z</time>
      </trkpt>
      <trkpt lat="45.7534" lon="-1.20731">
        <ele>22.5</ele>
        <time>2021-09-26T11:26:30.000Z</time>
      </trkpt>
      <trkpt lat="45.75331" lon="-1.20727">
        <ele>22</ele>
        <time>2021-09-26T11:26:27.000Z</time>
      </trkpt>
      <trkpt lat="45.75321" lon="-1.20722">
        <ele>21.9</ele>
        <time>2021-09-26T11:26:23.000Z</time>
      </trkpt>
      <trkpt lat="45.75311" lon="-1.20718">
        <ele>21.8</ele>
        <time>2021-09-26T11:26:19.000Z</time>
      </trkpt>
      <trkpt lat="45.753" lon="-1.20713">
        <ele>21.8</ele>
        <time>2021-09-26T11:26:14.000Z</time>
      </trkpt>
      <trkpt lat="45.75291" lon="-1.20707">
        <ele>22.2</ele>
        <time>2021-09-26T11:26:08.000Z</time>
      </trkpt>
      <trkpt lat="45.75281" lon="-1.20704">
        <ele>23.4</ele>
        <time>2021-09-26T11:26:03.000Z</time>
      </trkpt>
      <trkpt lat="45.75272" lon="-1.20703">
        <ele>23.7</ele>
        <time>2021-09-26T11:25:55.000Z</time>
      </trkpt>
      <trkpt lat="45.75263" lon="-1.20698">
        <ele>23.7</ele>
        <time>2021-09-26T11:25:49.000Z</time>
      </trkpt>
      <trkpt lat="45.75252" lon="-1.20694">
        <ele>23.7</ele>
        <time>2021-09-26T11:25:41.000Z</time>
      </trkpt>
      <trkpt lat="45.75243" lon="-1.20689">
        <ele>23.7</ele>
        <time>2021-09-26T11:25:35.000Z</time>
      </trkpt>
      <trkpt lat="45.75231" lon="-1.20686">
        <ele>24.5</ele>
        <time>2021-09-26T11:25:28.000Z</time>
      </trkpt>
      <trkpt lat="45.75221" lon="-1.20683">
        <ele>24.5</ele>
        <time>2021-09-26T11:25:20.000Z</time>
      </trkpt>
      <trkpt lat="45.75211" lon="-1.20679">
        <ele>24.1</ele>
        <time>2021-09-26T11:25:13.000Z</time>
      </trkpt>
      <trkpt lat="45.75201" lon="-1.20677">
        <ele>22.7</ele>
        <time>2021-09-26T11:25:07.000Z</time>
      </trkpt>
      <trkpt lat="45.75193" lon="-1.2067">
        <ele>22.5</ele>
        <time>2021-09-26T11:25:01.000Z</time>
      </trkpt>
      <trkpt lat="45.75186" lon="-1.20661">
        <ele>22.3</ele>
        <time>2021-09-26T11:24:55.000Z</time>
      </trkpt>
      <trkpt lat="45.75184" lon="-1.20647">
        <ele>21.9</ele>
        <time>2021-09-26T11:24:49.000Z</time>
      </trkpt>
      <trkpt lat="45.75184" lon="-1.20632">
        <ele>21.9</ele>
        <time>2021-09-26T11:24:42.000Z</time>
      </trkpt>
      <trkpt lat="45.75183" lon="-1.20618">
        <ele>22.1</ele>
        <time>2021-09-26T11:24:35.000Z</time>
      </trkpt>
      <trkpt lat="45.75183" lon="-1.20603">
        <ele>22.3</ele>
        <time>2021-09-26T11:24:29.000Z</time>
      </trkpt>
      <trkpt lat="45.75184" lon="-1.20589">
        <ele>22.4</ele>
        <time>2021-09-26T11:24:22.000Z</time>
      </trkpt>
      <trkpt lat="45.75185" lon="-1.20575">
        <ele>22.9</ele>
        <time>2021-09-26T11:24:16.000Z</time>
      </trkpt>
      <trkpt lat="45.75185" lon="-1.20559">
        <ele>24.2</ele>
        <time>2021-09-26T11:24:11.000Z</time>
      </trkpt>
      <trkpt lat="45.75186" lon="-1.20546">
        <ele>24.8</ele>
        <time>2021-09-26T11:24:05.000Z</time>
      </trkpt>
      <trkpt lat="45.75184" lon="-1.20531">
        <ele>25</ele>
        <time>2021-09-26T11:23:59.000Z</time>
      </trkpt>
      <trkpt lat="45.75183" lon="-1.20517">
        <ele>25.4</ele>
        <time>2021-09-26T11:23:52.000Z</time>
      </trkpt>
      <trkpt lat="45.75183" lon="-1.20503">
        <ele>27.4</ele>
        <time>2021-09-26T11:23:46.000Z</time>
      </trkpt>
      <trkpt lat="45.75182" lon="-1.2049">
        <ele>28.5</ele>
        <time>2021-09-26T11:23:40.000Z</time>
      </trkpt>
      <trkpt lat="45.75181" lon="-1.20476">
        <ele>29.8</ele>
        <time>2021-09-26T11:23:34.000Z</time>
      </trkpt>
      <trkpt lat="45.75179" lon="-1.20462">
        <ele>31.4</ele>
        <time>2021-09-26T11:23:27.000Z</time>
      </trkpt>
      <trkpt lat="45.75178" lon="-1.20447">
        <ele>32.3</ele>
        <time>2021-09-26T11:23:21.000Z</time>
      </trkpt>
      <trkpt lat="45.75178" lon="-1.20434">
        <ele>33.4</ele>
        <time>2021-09-26T11:23:15.000Z</time>
      </trkpt>
      <trkpt lat="45.75178" lon="-1.20419">
        <ele>34</ele>
        <time>2021-09-26T11:23:08.000Z</time>
      </trkpt>
      <trkpt lat="45.75179" lon="-1.20405">
        <ele>34.8</ele>
        <time>2021-09-26T11:23:02.000Z</time>
      </trkpt>
      <trkpt lat="45.75178" lon="-1.20391">
        <ele>35.8</ele>
        <time>2021-09-26T11:22:55.000Z</time>
      </trkpt>
      <trkpt lat="45.75177" lon="-1.20376">
        <ele>36.6</ele>
        <time>2021-09-26T11:22:49.000Z</time>
      </trkpt>
      <trkpt lat="45.75177" lon="-1.20363">
        <ele>37.5</ele>
        <time>2021-09-26T11:22:43.000Z</time>
      </trkpt>
      <trkpt lat="45.75178" lon="-1.2035">
        <ele>38.5</ele>
        <time>2021-09-26T11:22:36.000Z</time>
      </trkpt>
      <trkpt lat="45.75177" lon="-1.20335">
        <ele>39.3</ele>
        <time>2021-09-26T11:22:29.000Z</time>
      </trkpt>
      <trkpt lat="45.75178" lon="-1.20321">
        <ele>40.1</ele>
        <time>2021-09-26T11:22:22.000Z</time>
      </trkpt>
      <trkpt lat="45.75178" lon="-1.20307">
        <ele>40.4</ele>
        <time>2021-09-26T11:22:16.000Z</time>
      </trkpt>
      <trkpt lat="45.75178" lon="-1.20294">
        <ele>41</ele>
        <time>2021-09-26T11:22:11.000Z</time>
      </trkpt>
      <trkpt lat="45.75179" lon="-1.20279">
        <ele>41.3</ele>
        <time>2021-09-26T11:22:06.000Z</time>
      </trkpt>
      <trkpt lat="45.75177" lon="-1.20264">
        <ele>41.3</ele>
        <time>2021-09-26T11:22:01.000Z</time>
      </trkpt>
      <trkpt lat="45.75175" lon="-1.20181">
        <ele>38.7</ele>
        <time>2021-09-26T11:21:41.000Z</time>
      </trkpt>
      <trkpt lat="45.75203" lon="-1.20073">
        <ele>23.6</ele>
      </trkpt>
      <trkpt lat="45.75322" lon="-1.1997">
        <ele>17.5</ele>
      </trkpt>
      <trkpt lat="45.75574" lon="-1.19944">
        <ele>11.6</ele>
      </trkpt>
      <trkpt lat="45.75795" lon="-1.19884">
        <ele>16.9</ele>
      </trkpt>
      <trkpt lat="45.76071" lon="-1.19695">
        <ele>10</ele>
      </trkpt>
      <trkpt lat="45.76322" lon="-1.19549">
        <ele>13.9</ele>
      </trkpt>
      <trkpt lat="45.76358" lon="-1.19395">
        <ele>9.5</ele>
      </trkpt>
      <trkpt lat="45.76537" lon="-1.19549">
        <ele>10.8</ele>
      </trkpt>
      <trkpt lat="45.76611" lon="-1.19329">
        <ele>9.9</ele>
      </trkpt>
      <trkpt lat="45.76676" lon="-1.19201">
        <ele>13.1</ele>
      </trkpt>
      <trkpt lat="45.76599" lon="-1.18994">
        <ele>11.9</ele>
      </trkpt>
      <trkpt lat="45.76593" lon="-1.1884">
        <ele>12.9</ele>
      </trkpt>
      <trkpt lat="45.76617" lon="-1.18617">
        <ele>9.9</ele>
      </trkpt>
      <trkpt lat="45.76769" lon="-1.18466">
        <ele>22.1</ele>
      </trkpt>
      <trkpt lat="45.76825" lon="-1.18487">
        <ele>17.4</ele>
      </trkpt>
      <trkpt lat="45.76909" lon="-1.18482">
        <ele>9.7</ele>
      </trkpt>
      <trkpt lat="45.76992" lon="-1.18491">
        <ele>9</ele>
      </trkpt>
      <trkpt lat="45.77116" lon="-1.18478">
        <ele>9.8</ele>
      </trkpt>
      <trkpt lat="45.77278" lon="-1.18491">
        <ele>13.1</ele>
      </trkpt>
      <trkpt lat="45.77465" lon="-1.18449">
        <ele>19.2</ele>
      </trkpt>
      <trkpt lat="45.77545" lon="-1.18464">
        <ele>20.3</ele>
      </trkpt>
      <trkpt lat="45.77604" lon="-1.18472">
        <ele>21.3</ele>
      </trkpt>
      <trkpt lat="45.78507" lon="-1.18433">
        <ele>10.2</ele>
      </trkpt>
      <trkpt lat="45.78516" lon="-1.1839">
        <ele>10.5</ele>
      </trkpt>
      <trkpt lat="45.78549" lon="-1.18386">
        <ele>11.4</ele>
      </trkpt>
      <trkpt lat="45.78588" lon="-1.18296">
        <ele>9</ele>
      </trkpt>
      <trkpt lat="45.78579" lon="-1.18235">
        <ele>8.4</ele>
      </trkpt>
      <trkpt lat="45.786" lon="-1.18201">
        <ele>8.8</ele>
      </trkpt>
      <trkpt lat="45.78591" lon="-1.18132">
        <ele>12</ele>
      </trkpt>
      <trkpt lat="45.78624" lon="-1.1809">
        <ele>12.8</ele>
      </trkpt>
      <trkpt lat="45.78591" lon="-1.17999">
        <ele>19</ele>
      </trkpt>
      <trkpt lat="45.78612" lon="-1.17914">
        <ele>18.9</ele>
      </trkpt>
      <trkpt lat="45.78618" lon="-1.17772">
        <ele>12.9</ele>
      </trkpt>
      <trkpt lat="45.78642" lon="-1.17729">
        <ele>12.6</ele>
      </trkpt>
      <trkpt lat="45.78695" lon="-1.17733">
        <ele>15</ele>
      </trkpt>
      <trkpt lat="45.78737" lon="-1.17665">
        <ele>12.9</ele>
      </trkpt>
      <trkpt lat="45.78803" lon="-1.17519">
        <ele>10.8</ele>
      </trkpt>
      <trkpt lat="45.78857" lon="-1.17489">
        <ele>11.4</ele>
      </trkpt>
      <trkpt lat="45.78872" lon="-1.17437">
        <ele>9.4</ele>
      </trkpt>
      <trkpt lat="45.78872" lon="-1.1736">
        <ele>9.2</ele>
      </trkpt>
      <trkpt lat="45.78812" lon="-1.17265">
        <ele>18.5</ele>
      </trkpt>
      <trkpt lat="45.78959" lon="-1.17154">
        <ele>13.5</ele>
      </trkpt>
      <trkpt lat="45.78992" lon="-1.17102">
        <ele>10</ele>
      </trkpt>
      <trkpt lat="45.78974" lon="-1.17076">
        <ele>12.8</ele>
      </trkpt>
      <trkpt lat="45.79027" lon="-1.16982">
        <ele>13.4</ele>
      </trkpt>
      <trkpt lat="45.79075" lon="-1.16909">
        <ele>13.5</ele>
      </trkpt>
      <trkpt lat="45.79087" lon="-1.16772">
        <ele>13.8</ele>
      </trkpt>
      <trkpt lat="45.79162" lon="-1.16703">
        <ele>9.5</ele>
      </trkpt>
      <trkpt lat="45.79177" lon="-1.16609">
        <ele>10.6</ele>
      </trkpt>
      <trkpt lat="45.78716" lon="-1.16626">
        <ele>14.8</ele>
      </trkpt>
      <trkpt lat="45.78716" lon="-1.16617">
        <ele>14.8</ele>
      </trkpt>
      <trkpt lat="45.79207" lon="-1.16482">
        <ele>9.4</ele>
      </trkpt>
      <trkpt lat="45.7872" lon="-1.16584">
        <ele>16</ele>
      </trkpt>
      <trkpt lat="45.78767" lon="-1.18137">
        <ele>8.6</ele>
      </trkpt>
      <trkpt lat="45.78819" lon="-1.20352">
        <ele>6.3</ele>
      </trkpt>
      <trkpt lat="45.78846" lon="-1.2147">
        <ele>5.9</ele>
      </trkpt>
      <trkpt lat="45.78933" lon="-1.21549">
        <ele>4.6</ele>
      </trkpt>
      <trkpt lat="45.79018" lon="-1.21523">
        <ele>5</ele>
      </trkpt>
      <trkpt lat="45.79112" lon="-1.21534">
        <ele>6.2</ele>
      </trkpt>
      <trkpt lat="45.79169" lon="-1.21523">
        <ele>4</ele>
      </trkpt>
      <trkpt lat="45.79214" lon="-1.21609">
        <ele>5</ele>
      </trkpt>
      <trkpt lat="45.789" lon="-1.22169">
        <ele>6.8</ele>
      </trkpt>
      <trkpt lat="45.78871" lon="-1.22377">
        <ele>6.7</ele>
      </trkpt>
      <trkpt lat="45.789" lon="-1.22592">
        <ele>1</ele>
      </trkpt>
      <trkpt lat="45.78882" lon="-1.22738">
        <ele>1.3</ele>
      </trkpt>
      <trkpt lat="45.78779" lon="-1.23113">
        <ele>5.7</ele>
      </trkpt>
      <trkpt lat="45.78643" lon="-1.23382">
        <ele>6.4</ele>
      </trkpt>
      <trkpt lat="45.78429" lon="-1.23828">
        <ele>6.8</ele>
      </trkpt>
      <trkpt lat="45.78244" lon="-1.24058">
        <ele>8</ele>
      </trkpt>
      <trkpt lat="45.77923" lon="-1.24306">
        <ele>6.1</ele>
      </trkpt>
      <trkpt lat="45.77677" lon="-1.24403">
        <ele>3</ele>
      </trkpt>
      <trkpt lat="45.77451" lon="-1.24425">
        <ele>3</ele>
      </trkpt>
      <trkpt lat="45.77206" lon="-1.24437">
        <ele>3.3</ele>
      </trkpt>
      <trkpt lat="45.77061" lon="-1.24405">
        <ele>4</ele>
      </trkpt>
      <trkpt lat="45.76766" lon="-1.24326">
        <ele>4.1</ele>
      </trkpt>
      <trkpt lat="45.7641" lon="-1.24221">
        <ele>5</ele>
      </trkpt>
      <trkpt lat="45.75923" lon="-1.24124">
        <ele>4.7</ele>
      </trkpt>
      <trkpt lat="45.75456" lon="-1.24058">
        <ele>5.9</ele>
      </trkpt>
      <trkpt lat="45.74969" lon="-1.2404">
        <ele>4.1</ele>
      </trkpt>
      <trkpt lat="45.74755" lon="-1.24032">
        <ele>4.7</ele>
      </trkpt>
      <trkpt lat="45.74751" lon="-1.24032">
        <ele>4.7</ele>
      </trkpt>
    </trkseg>
  </trk>
</gpx>